sensor_id;sensor_type;location;lat;lon;timestamp;pressure;altitude;pressure_sealevel;temperature;humidity
57094;BME280;42970;50.996;3.706;2023-05-15T00:01:48;47175.91;;;-146.65;78.09
57094;BME280;42970;50.996;3.706;2023-05-15T00:04:14;47173.91;;;-146.65;78.15
57094;BME280;42970;50.996;3.706;2023-05-15T00:06:39;47177.91;;;-146.65;78.14
57094;BME280;42970;50.996;3.706;2023-05-15T00:09:05;47177.91;;;-146.65;77.27
57094;BME280;42970;50.996;3.706;2023-05-15T00:11:30;47177.91;;;-146.65;76.66
57094;BME280;42970;50.996;3.706;2023-05-15T00:13:56;47177.91;;;-146.65;76.41
57094;BME280;42970;50.996;3.706;2023-05-15T00:16:23;47175.91;;;-146.65;76.67
57094;BME280;42970;50.996;3.706;2023-05-15T00:18:48;47173.91;;;-146.65;76.49
57094;BME280;42970;50.996;3.706;2023-05-15T00:21:14;47173.91;;;-146.65;76.02
57094;BME280;42970;50.996;3.706;2023-05-15T00:23:39;47171.91;;;-146.65;75.52
57094;BME280;42970;50.996;3.706;2023-05-15T00:26:05;47177.91;;;-146.65;75.84
57094;BME280;42970;50.996;3.706;2023-05-15T00:28:30;47173.91;;;-146.65;75.38
57094;BME280;42970;50.996;3.706;2023-05-15T00:30:55;47175.91;;;-146.65;75.79
57094;BME280;42970;50.996;3.706;2023-05-15T00:33:21;47177.91;;;-146.65;76.14
57094;BME280;42970;50.996;3.706;2023-05-15T00:35:47;47173.91;;;-146.65;76.34
57094;BME280;42970;50.996;3.706;2023-05-15T00:38:13;47173.91;;;-146.65;75.61
57094;BME280;42970;50.996;3.706;2023-05-15T00:40:40;47173.91;;;-146.65;74.87
57094;BME280;42970;50.996;3.706;2023-05-15T00:43:07;47173.91;;;-146.65;74.77
57094;BME280;42970;50.996;3.706;2023-05-15T00:45:33;47177.91;;;-146.65;75.71
57094;BME280;42970;50.996;3.706;2023-05-15T00:47:59;47177.91;;;-146.65;75.76
57094;BME280;42970;50.996;3.706;2023-05-15T00:50:25;47175.91;;;-146.65;75.45
57094;BME280;42970;50.996;3.706;2023-05-15T00:52:51;47171.91;;;-146.65;75.31
57094;BME280;42970;50.996;3.706;2023-05-15T00:55:17;47177.91;;;-146.65;75.53
57094;BME280;42970;50.996;3.706;2023-05-15T00:57:43;47175.91;;;-146.65;75.74
57094;BME280;42970;50.996;3.706;2023-05-15T01:00:09;47177.91;;;-146.65;75.76
57094;BME280;42970;50.996;3.706;2023-05-15T01:02:36;47177.91;;;-146.65;75.86
57094;BME280;42970;50.996;3.706;2023-05-15T01:05:02;47175.91;;;-146.65;76.26
57094;BME280;42970;50.996;3.706;2023-05-15T01:07:34;47173.91;;;-146.65;76.24
57094;BME280;42970;50.996;3.706;2023-05-15T01:10:06;47171.91;;;-146.65;76.34
57094;BME280;42970;50.996;3.706;2023-05-15T01:12:33;47177.91;;;-146.65;77.09
57094;BME280;42970;50.996;3.706;2023-05-15T01:15:00;47173.91;;;-146.65;76.60
57094;BME280;42970;50.996;3.706;2023-05-15T01:17:25;47173.91;;;-146.65;76.09
57094;BME280;42970;50.996;3.706;2023-05-15T01:19:51;47173.91;;;-146.65;75.91
57094;BME280;42970;50.996;3.706;2023-05-15T01:22:46;47175.91;;;-146.65;75.63
57094;BME280;42970;50.996;3.706;2023-05-15T01:28:02;47173.91;;;-146.65;75.17
57094;BME280;42970;50.996;3.706;2023-05-15T01:30:38;47177.91;;;-146.65;75.97
57094;BME280;42970;50.996;3.706;2023-05-15T01:33:24;47173.91;;;-146.65;76.45
57094;BME280;42970;50.996;3.706;2023-05-15T01:36:04;47177.91;;;-146.65;76.54
57094;BME280;42970;50.996;3.706;2023-05-15T01:41:21;47171.91;;;-146.65;76.74
57094;BME280;42970;50.996;3.706;2023-05-15T01:43:51;47181.91;;;-146.65;76.34
57094;BME280;42970;50.996;3.706;2023-05-15T01:46:22;47179.91;;;-146.65;76.34
57094;BME280;42970;50.996;3.706;2023-05-15T01:48:49;47173.91;;;-146.65;76.33
57094;BME280;42970;50.996;3.706;2023-05-15T01:51:16;47173.91;;;-146.65;75.84
57094;BME280;42970;50.996;3.706;2023-05-15T01:53:44;47177.91;;;-146.65;76.24
57094;BME280;42970;50.996;3.706;2023-05-15T01:56:12;47177.91;;;-146.65;77.62
57094;BME280;42970;50.996;3.706;2023-05-15T01:58:38;47175.91;;;-146.65;78.15
57094;BME280;42970;50.996;3.706;2023-05-15T02:01:04;47171.91;;;-146.65;80.54
57094;BME280;42970;50.996;3.706;2023-05-15T02:03:31;47173.91;;;-146.65;82.14
57094;BME280;42970;50.996;3.706;2023-05-15T02:06:00;47175.91;;;-146.65;83.18
57094;BME280;42970;50.996;3.706;2023-05-15T02:08:26;47177.91;;;-146.65;84.07
57094;BME280;42970;50.996;3.706;2023-05-15T02:10:55;47177.91;;;-146.65;84.01
57094;BME280;42970;50.996;3.706;2023-05-15T02:13:24;47175.91;;;-146.65;84.04
57094;BME280;42970;50.996;3.706;2023-05-15T02:15:49;47175.91;;;-146.65;84.77
57094;BME280;42970;50.996;3.706;2023-05-15T02:18:14;47177.91;;;-146.65;84.44
57094;BME280;42970;50.996;3.706;2023-05-15T02:20:40;47175.91;;;-146.65;84.31
57094;BME280;42970;50.996;3.706;2023-05-15T02:23:05;47175.91;;;-146.65;84.37
57094;BME280;42970;50.996;3.706;2023-05-15T02:28:24;47173.91;;;-146.65;83.76
57094;BME280;42970;50.996;3.706;2023-05-15T02:30:57;47175.91;;;-146.65;83.50
57094;BME280;42970;50.996;3.706;2023-05-15T02:34:27;47169.91;;;-146.65;84.50
57094;BME280;42970;50.996;3.706;2023-05-15T02:36:32;47175.91;;;-146.65;85.07
57094;BME280;42970;50.996;3.706;2023-05-15T02:39:04;47177.91;;;-146.65;84.90
57094;BME280;42970;50.996;3.706;2023-05-15T02:41:30;47177.91;;;-146.65;84.99
57094;BME280;42970;50.996;3.706;2023-05-15T02:43:57;47177.91;;;-146.65;84.92
57094;BME280;42970;50.996;3.706;2023-05-15T02:46:25;47171.91;;;-146.65;84.05
57094;BME280;42970;50.996;3.706;2023-05-15T02:48:52;47175.91;;;-146.65;84.14
57094;BME280;42970;50.996;3.706;2023-05-15T02:51:18;47173.91;;;-146.65;83.53
57094;BME280;42970;50.996;3.706;2023-05-15T02:53:44;47169.91;;;-146.65;83.52
57094;BME280;42970;50.996;3.706;2023-05-15T02:56:10;47177.91;;;-146.65;84.13
57094;BME280;42970;50.996;3.706;2023-05-15T02:58:36;47173.91;;;-146.65;83.86
57094;BME280;42970;50.996;3.706;2023-05-15T03:01:03;47173.91;;;-146.65;84.00
57094;BME280;42970;50.996;3.706;2023-05-15T03:03:28;47173.91;;;-146.65;83.97
57094;BME280;42970;50.996;3.706;2023-05-15T03:05:54;47173.91;;;-146.65;83.95
57094;BME280;42970;50.996;3.706;2023-05-15T03:08:20;47173.91;;;-146.65;83.94
57094;BME280;42970;50.996;3.706;2023-05-15T03:10:45;47175.91;;;-146.65;84.69
57094;BME280;42970;50.996;3.706;2023-05-15T03:13:11;47173.91;;;-146.65;85.35
57094;BME280;42970;50.996;3.706;2023-05-15T03:15:36;47173.91;;;-146.65;84.69
57094;BME280;42970;50.996;3.706;2023-05-15T03:18:01;47173.91;;;-146.65;84.69
57094;BME280;42970;50.996;3.706;2023-05-15T03:20:27;47175.91;;;-146.65;84.64
57094;BME280;42970;50.996;3.706;2023-05-15T03:22:52;47175.91;;;-146.65;84.52
57094;BME280;42970;50.996;3.706;2023-05-15T03:25:18;47175.91;;;-146.65;84.58
57094;BME280;42970;50.996;3.706;2023-05-15T03:27:43;47173.91;;;-146.65;84.14
57094;BME280;42970;50.996;3.706;2023-05-15T03:30:09;47173.91;;;-146.65;84.21
57094;BME280;42970;50.996;3.706;2023-05-15T03:32:35;47181.91;;;-146.65;85.04
57094;BME280;42970;50.996;3.706;2023-05-15T03:35:00;47171.91;;;-146.65;85.21
57094;BME280;42970;50.996;3.706;2023-05-15T03:37:26;47175.91;;;-146.65;84.99
57094;BME280;42970;50.996;3.706;2023-05-15T03:39:51;47177.91;;;-146.65;84.62
57094;BME280;42970;50.996;3.706;2023-05-15T03:42:16;47171.91;;;-146.65;84.66
57094;BME280;42970;50.996;3.706;2023-05-15T03:44:48;47175.91;;;-146.65;84.44
57094;BME280;42970;50.996;3.706;2023-05-15T03:47:14;47177.91;;;-146.65;85.52
57094;BME280;42970;50.996;3.706;2023-05-15T03:49:39;47175.91;;;-146.65;85.71
57094;BME280;42970;50.996;3.706;2023-05-15T03:52:05;47177.91;;;-146.65;85.48
57094;BME280;42970;50.996;3.706;2023-05-15T03:54:31;47175.91;;;-146.65;85.35
57094;BME280;42970;50.996;3.706;2023-05-15T03:56:56;47175.91;;;-146.65;85.66
57094;BME280;42970;50.996;3.706;2023-05-15T03:59:22;47177.91;;;-146.65;85.64
57094;BME280;42970;50.996;3.706;2023-05-15T04:01:48;47171.91;;;-146.65;85.49
57094;BME280;42970;50.996;3.706;2023-05-15T04:04:13;47173.91;;;-146.65;85.75
57094;BME280;42970;50.996;3.706;2023-05-15T04:06:39;47173.91;;;-146.65;85.52
57094;BME280;42970;50.996;3.706;2023-05-15T04:09:05;47175.91;;;-146.65;85.40
57094;BME280;42970;50.996;3.706;2023-05-15T04:11:30;47175.91;;;-146.65;84.81
57094;BME280;42970;50.996;3.706;2023-05-15T04:13:55;47173.91;;;-146.65;84.54
57094;BME280;42970;50.996;3.706;2023-05-15T04:16:21;47177.91;;;-146.65;83.39
57094;BME280;42970;50.996;3.706;2023-05-15T04:18:46;47173.91;;;-146.65;83.12
57094;BME280;42970;50.996;3.706;2023-05-15T04:21:12;47173.91;;;-146.65;82.44
57094;BME280;42970;50.996;3.706;2023-05-15T04:23:37;47177.91;;;-146.65;82.72
57094;BME280;42970;50.996;3.706;2023-05-15T04:26:05;47173.91;;;-146.65;83.05
57094;BME280;42970;50.996;3.706;2023-05-15T04:28:32;47173.91;;;-146.65;83.55
57094;BME280;42970;50.996;3.706;2023-05-15T04:30:58;47171.91;;;-146.65;84.32
57094;BME280;42970;50.996;3.706;2023-05-15T04:33:23;47175.91;;;-146.65;84.82
57094;BME280;42970;50.996;3.706;2023-05-15T04:35:49;47175.91;;;-146.65;84.62
57094;BME280;42970;50.996;3.706;2023-05-15T04:38:15;47177.91;;;-146.65;84.43
57094;BME280;42970;50.996;3.706;2023-05-15T04:40:40;47173.91;;;-146.65;84.61
57094;BME280;42970;50.996;3.706;2023-05-15T04:43:06;47177.91;;;-146.65;85.16
57094;BME280;42970;50.996;3.706;2023-05-15T04:45:32;47173.91;;;-146.65;85.33
57094;BME280;42970;50.996;3.706;2023-05-15T04:47:58;47173.91;;;-146.65;85.11
57094;BME280;42970;50.996;3.706;2023-05-15T04:50:23;47173.91;;;-146.65;84.92
57094;BME280;42970;50.996;3.706;2023-05-15T04:52:49;47175.91;;;-146.65;84.85
57094;BME280;42970;50.996;3.706;2023-05-15T04:55:14;47177.91;;;-146.65;84.56
57094;BME280;42970;50.996;3.706;2023-05-15T04:57:40;47177.91;;;-146.65;83.95
57094;BME280;42970;50.996;3.706;2023-05-15T05:00:05;47171.91;;;-146.65;83.51
57094;BME280;42970;50.996;3.706;2023-05-15T05:02:38;47175.91;;;-146.65;82.70
57094;BME280;42970;50.996;3.706;2023-05-15T05:05:05;47177.91;;;-146.65;82.42
57094;BME280;42970;50.996;3.706;2023-05-15T05:07:31;47175.91;;;-146.65;83.13
57094;BME280;42970;50.996;3.706;2023-05-15T05:09:57;47173.91;;;-146.65;82.75
57094;BME280;42970;50.996;3.706;2023-05-15T05:12:22;47173.91;;;-146.65;82.85
57094;BME280;42970;50.996;3.706;2023-05-15T05:14:47;47179.91;;;-146.65;82.67
57094;BME280;42970;50.996;3.706;2023-05-15T05:17:13;47177.91;;;-146.65;82.01
57094;BME280;42970;50.996;3.706;2023-05-15T05:19:38;47175.91;;;-146.65;82.27
57094;BME280;42970;50.996;3.706;2023-05-15T05:22:04;47175.91;;;-146.65;82.45
57094;BME280;42970;50.996;3.706;2023-05-15T05:24:30;47175.91;;;-146.65;82.67
57094;BME280;42970;50.996;3.706;2023-05-15T05:26:57;47175.91;;;-146.65;83.19
57094;BME280;42970;50.996;3.706;2023-05-15T05:29:23;47177.91;;;-146.65;83.01
57094;BME280;42970;50.996;3.706;2023-05-15T05:31:48;47175.91;;;-146.65;83.02
57094;BME280;42970;50.996;3.706;2023-05-15T05:34:13;47177.91;;;-146.65;82.64
57094;BME280;42970;50.996;3.706;2023-05-15T05:36:39;47173.91;;;-146.65;82.44
57094;BME280;42970;50.996;3.706;2023-05-15T05:39:05;47173.91;;;-146.65;82.88
57094;BME280;42970;50.996;3.706;2023-05-15T05:41:31;47175.91;;;-146.65;82.97
57094;BME280;42970;50.996;3.706;2023-05-15T05:43:56;47173.91;;;-146.65;81.86
57094;BME280;42970;50.996;3.706;2023-05-15T05:46:21;47173.91;;;-146.65;82.36
57094;BME280;42970;50.996;3.706;2023-05-15T05:48:47;47175.91;;;-146.65;82.23
57094;BME280;42970;50.996;3.706;2023-05-15T05:51:13;47175.91;;;-146.65;82.13
57094;BME280;42970;50.996;3.706;2023-05-15T05:53:39;47173.91;;;-146.65;81.73
57094;BME280;42970;50.996;3.706;2023-05-15T05:56:04;47173.91;;;-146.65;80.81
57094;BME280;42970;50.996;3.706;2023-05-15T05:58:30;47175.91;;;-146.65;80.28
57094;BME280;42970;50.996;3.706;2023-05-15T06:00:56;47175.91;;;-146.65;80.32
57094;BME280;42970;50.996;3.706;2023-05-15T06:03:21;47175.91;;;-146.65;80.20
57094;BME280;42970;50.996;3.706;2023-05-15T06:05:47;47175.91;;;-146.65;79.88
57094;BME280;42970;50.996;3.706;2023-05-15T06:08:12;47175.91;;;-146.65;80.25
57094;BME280;42970;50.996;3.706;2023-05-15T06:10:38;47177.91;;;-146.65;79.68
57094;BME280;42970;50.996;3.706;2023-05-15T06:13:04;47177.91;;;-146.65;80.15
57094;BME280;42970;50.996;3.706;2023-05-15T06:15:29;47177.91;;;-146.65;79.46
57094;BME280;42970;50.996;3.706;2023-05-15T06:17:55;47177.91;;;-146.65;78.68
57094;BME280;42970;50.996;3.706;2023-05-15T06:20:20;47173.91;;;-146.65;78.41
57094;BME280;42970;50.996;3.706;2023-05-15T06:22:47;47177.91;;;-146.65;77.76
57094;BME280;42970;50.996;3.706;2023-05-15T06:25:15;47175.91;;;-146.65;76.27
57094;BME280;42970;50.996;3.706;2023-05-15T06:27:40;47177.91;;;-146.65;75.36
57094;BME280;42970;50.996;3.706;2023-05-15T06:30:08;47175.91;;;-146.65;74.61
57094;BME280;42970;50.996;3.706;2023-05-15T06:32:34;47173.91;;;-146.65;73.89
57094;BME280;42970;50.996;3.706;2023-05-15T06:35:00;47175.91;;;-146.65;74.22
57094;BME280;42970;50.996;3.706;2023-05-15T06:37:25;47177.91;;;-146.65;76.55
57094;BME280;42970;50.996;3.706;2023-05-15T06:39:53;47175.91;;;-146.65;75.22
57094;BME280;42970;50.996;3.706;2023-05-15T06:42:18;47177.91;;;-146.65;73.79
57094;BME280;42970;50.996;3.706;2023-05-15T06:44:44;47175.91;;;-146.65;72.97
57094;BME280;42970;50.996;3.706;2023-05-15T06:47:11;47175.91;;;-146.65;72.71
57094;BME280;42970;50.996;3.706;2023-05-15T06:49:37;47177.91;;;-146.65;72.38
57094;BME280;42970;50.996;3.706;2023-05-15T06:52:02;47177.91;;;-146.65;71.95
57094;BME280;42970;50.996;3.706;2023-05-15T06:54:28;47175.91;;;-146.65;71.82
57094;BME280;42970;50.996;3.706;2023-05-15T06:56:54;47175.91;;;-146.65;72.26
57094;BME280;42970;50.996;3.706;2023-05-15T06:59:19;47177.91;;;-146.65;71.72
57094;BME280;42970;50.996;3.706;2023-05-15T07:01:44;47177.91;;;-146.65;70.47
57094;BME280;42970;50.996;3.706;2023-05-15T07:04:10;47175.91;;;-146.65;73.46
57094;BME280;42970;50.996;3.706;2023-05-15T07:06:36;47173.91;;;-146.65;75.02
57094;BME280;42970;50.996;3.706;2023-05-15T07:09:02;47173.91;;;-146.65;73.74
57094;BME280;42970;50.996;3.706;2023-05-15T07:11:27;47177.91;;;-146.65;73.18
57094;BME280;42970;50.996;3.706;2023-05-15T07:13:53;47177.91;;;-146.65;73.02
57094;BME280;42970;50.996;3.706;2023-05-15T07:16:19;47177.91;;;-146.65;74.05
57094;BME280;42970;50.996;3.706;2023-05-15T07:18:44;47177.91;;;-146.65;74.20
57094;BME280;42970;50.996;3.706;2023-05-15T07:21:10;47177.91;;;-146.65;73.32
57094;BME280;42970;50.996;3.706;2023-05-15T07:23:36;47175.91;;;-146.65;74.13
57094;BME280;42970;50.996;3.706;2023-05-15T07:26:01;47179.91;;;-146.65;74.81
57094;BME280;42970;50.996;3.706;2023-05-15T07:28:27;47179.91;;;-146.65;73.99
57094;BME280;42970;50.996;3.706;2023-05-15T07:30:52;47175.91;;;-146.65;73.31
57094;BME280;42970;50.996;3.706;2023-05-15T07:33:17;47175.91;;;-146.65;73.07
57094;BME280;42970;50.996;3.706;2023-05-15T07:35:43;47175.91;;;-146.65;71.95
57094;BME280;42970;50.996;3.706;2023-05-15T07:38:08;47177.91;;;-146.65;71.81
57094;BME280;42970;50.996;3.706;2023-05-15T07:40:34;47177.91;;;-146.65;72.35
57094;BME280;42970;50.996;3.706;2023-05-15T07:43:00;47175.91;;;-146.65;73.45
57094;BME280;42970;50.996;3.706;2023-05-15T07:45:25;47175.91;;;-146.65;73.88
57094;BME280;42970;50.996;3.706;2023-05-15T07:47:51;47173.91;;;-146.65;74.25
57094;BME280;42970;50.996;3.706;2023-05-15T07:50:16;47171.91;;;-146.65;72.18
57094;BME280;42970;50.996;3.706;2023-05-15T07:52:42;47175.91;;;-146.65;71.45
57094;BME280;42970;50.996;3.706;2023-05-15T07:55:11;47175.91;;;-146.65;72.06
57094;BME280;42970;50.996;3.706;2023-05-15T07:57:37;47173.91;;;-146.65;74.45
57094;BME280;42970;50.996;3.706;2023-05-15T08:00:05;47181.91;;;-146.65;73.88
57094;BME280;42970;50.996;3.706;2023-05-15T08:02:34;47175.91;;;-146.65;74.23
57094;BME280;42970;50.996;3.706;2023-05-15T08:05:00;47175.91;;;-146.65;75.60
57094;BME280;42970;50.996;3.706;2023-05-15T08:07:25;47177.91;;;-146.65;76.13
57094;BME280;42970;50.996;3.706;2023-05-15T08:09:51;47179.91;;;-146.65;75.27
57094;BME280;42970;50.996;3.706;2023-05-15T08:12:18;47175.91;;;-146.65;75.26
57094;BME280;42970;50.996;3.706;2023-05-15T08:14:47;47179.91;;;-146.65;74.61
57094;BME280;42970;50.996;3.706;2023-05-15T08:17:13;47173.91;;;-146.65;74.04
57094;BME280;42970;50.996;3.706;2023-05-15T08:19:38;47175.91;;;-146.65;73.00
57094;BME280;42970;50.996;3.706;2023-05-15T08:22:03;47177.91;;;-146.65;72.51
57094;BME280;42970;50.996;3.706;2023-05-15T08:24:29;47175.91;;;-146.65;75.07
57094;BME280;42970;50.996;3.706;2023-05-15T08:26:54;47173.91;;;-146.65;76.23
57094;BME280;42970;50.996;3.706;2023-05-15T08:29:20;47173.91;;;-146.65;75.88
57094;BME280;42970;50.996;3.706;2023-05-15T08:31:45;47175.91;;;-146.65;74.48
57094;BME280;42970;50.996;3.706;2023-05-15T08:34:11;47175.91;;;-146.65;75.57
57094;BME280;42970;50.996;3.706;2023-05-15T08:36:36;47175.91;;;-146.65;75.19
57094;BME280;42970;50.996;3.706;2023-05-15T08:39:02;47177.91;;;-146.65;75.67
57094;BME280;42970;50.996;3.706;2023-05-15T08:41:31;47173.91;;;-146.65;75.86
57094;BME280;42970;50.996;3.706;2023-05-15T08:43:59;47173.91;;;-146.65;75.62
57094;BME280;42970;50.996;3.706;2023-05-15T08:46:27;47179.91;;;-146.65;76.10
57094;BME280;42970;50.996;3.706;2023-05-15T08:48:53;47179.91;;;-146.65;75.94
57094;BME280;42970;50.996;3.706;2023-05-15T08:51:21;47177.91;;;-146.65;74.39
57094;BME280;42970;50.996;3.706;2023-05-15T08:53:48;47173.91;;;-146.65;75.33
57094;BME280;42970;50.996;3.706;2023-05-15T08:56:14;47177.91;;;-146.65;76.04
57094;BME280;42970;50.996;3.706;2023-05-15T08:58:40;47177.91;;;-146.65;76.02
57094;BME280;42970;50.996;3.706;2023-05-15T09:01:06;47177.91;;;-146.65;74.49
57094;BME280;42970;50.996;3.706;2023-05-15T09:03:32;47177.91;;;-146.65;74.44
57094;BME280;42970;50.996;3.706;2023-05-15T09:05:57;47177.91;;;-146.65;73.86
57094;BME280;42970;50.996;3.706;2023-05-15T09:08:24;47179.91;;;-146.65;73.49
57094;BME280;42970;50.996;3.706;2023-05-15T09:10:51;47173.91;;;-146.65;72.57
57094;BME280;42970;50.996;3.706;2023-05-15T09:13:17;47175.91;;;-146.65;72.82
57094;BME280;42970;50.996;3.706;2023-05-15T09:15:44;47175.91;;;-146.65;73.96
57094;BME280;42970;50.996;3.706;2023-05-15T09:18:12;47173.91;;;-146.65;74.19
57094;BME280;42970;50.996;3.706;2023-05-15T09:20:38;47177.91;;;-146.65;74.94
57094;BME280;42970;50.996;3.706;2023-05-15T09:23:21;47173.91;;;-146.65;76.61
57094;BME280;42970;50.996;3.706;2023-05-15T09:25:46;47177.91;;;-146.65;76.16
57094;BME280;42970;50.996;3.706;2023-05-15T09:28:29;47177.91;;;-146.65;75.51
57094;BME280;42970;50.996;3.706;2023-05-15T09:31:02;47175.91;;;-146.65;75.89
57094;BME280;42970;50.996;3.706;2023-05-15T09:33:29;47175.91;;;-146.65;76.45
57094;BME280;42970;50.996;3.706;2023-05-15T09:35:55;47177.91;;;-146.65;76.89
57094;BME280;42970;50.996;3.706;2023-05-15T09:38:20;47175.91;;;-146.65;75.73
57094;BME280;42970;50.996;3.706;2023-05-15T09:40:45;47177.91;;;-146.65;74.50
57094;BME280;42970;50.996;3.706;2023-05-15T09:43:10;47179.91;;;-146.65;74.57
57094;BME280;42970;50.996;3.706;2023-05-15T09:45:36;47177.91;;;-146.65;73.71
57094;BME280;42970;50.996;3.706;2023-05-15T09:48:05;47173.91;;;-146.65;73.43
57094;BME280;42970;50.996;3.706;2023-05-15T09:50:34;47179.91;;;-146.65;74.10
57094;BME280;42970;50.996;3.706;2023-05-15T09:53:00;47171.91;;;-146.65;72.64
57094;BME280;42970;50.996;3.706;2023-05-15T09:55:25;47175.91;;;-146.65;72.12
57094;BME280;42970;50.996;3.706;2023-05-15T10:00:32;47175.91;;;-146.65;73.95
57094;BME280;42970;50.996;3.706;2023-05-15T10:02:59;47173.91;;;-146.65;73.71
57094;BME280;42970;50.996;3.706;2023-05-15T10:05:28;47175.91;;;-146.65;74.81
57094;BME280;42970;50.996;3.706;2023-05-15T10:07:53;47179.91;;;-146.65;75.23
57094;BME280;42970;50.996;3.706;2023-05-15T10:10:20;47173.91;;;-146.65;75.77
57094;BME280;42970;50.996;3.706;2023-05-15T10:12:46;47175.91;;;-146.65;76.19
57094;BME280;42970;50.996;3.706;2023-05-15T10:15:11;47181.91;;;-146.65;75.94
57094;BME280;42970;50.996;3.706;2023-05-15T10:17:37;47175.91;;;-146.65;76.27
57094;BME280;42970;50.996;3.706;2023-05-15T10:20:04;47175.91;;;-146.65;76.65
57094;BME280;42970;50.996;3.706;2023-05-15T10:22:31;47175.91;;;-146.65;77.28
57094;BME280;42970;50.996;3.706;2023-05-15T10:27:45;47171.91;;;-146.65;77.85
57094;BME280;42970;50.996;3.706;2023-05-15T10:30:11;47175.91;;;-146.65;78.66
57094;BME280;42970;50.996;3.706;2023-05-15T10:32:36;47179.91;;;-146.65;79.45
57094;BME280;42970;50.996;3.706;2023-05-15T10:35:03;47175.91;;;-146.65;80.08
57094;BME280;42970;50.996;3.706;2023-05-15T10:37:29;47173.91;;;-146.65;79.27
57094;BME280;42970;50.996;3.706;2023-05-15T10:39:54;47173.91;;;-146.65;79.35
57094;BME280;42970;50.996;3.706;2023-05-15T10:42:22;47179.91;;;-146.65;79.35
57094;BME280;42970;50.996;3.706;2023-05-15T10:44:50;47177.91;;;-146.65;79.27
57094;BME280;42970;50.996;3.706;2023-05-15T10:47:16;47177.91;;;-146.65;79.32
57094;BME280;42970;50.996;3.706;2023-05-15T10:49:41;47175.91;;;-146.65;79.63
57094;BME280;42970;50.996;3.706;2023-05-15T10:52:07;47177.91;;;-146.65;80.63
57094;BME280;42970;50.996;3.706;2023-05-15T10:54:33;47175.91;;;-146.65;80.44
57094;BME280;42970;50.996;3.706;2023-05-15T10:56:58;47175.91;;;-146.65;80.77
57094;BME280;42970;50.996;3.706;2023-05-15T10:59:30;47175.91;;;-146.65;81.66
57094;BME280;42970;50.996;3.706;2023-05-15T11:01:56;47171.91;;;-146.65;82.24
57094;BME280;42970;50.996;3.706;2023-05-15T11:04:21;47175.91;;;-146.65;82.38
57094;BME280;42970;50.996;3.706;2023-05-15T11:06:48;47173.91;;;-146.65;82.70
57094;BME280;42970;50.996;3.706;2023-05-15T11:14:17;47177.91;;;-146.65;85.00
57094;BME280;42970;50.996;3.706;2023-05-15T11:19:23;47177.91;;;-146.65;85.32
57094;BME280;42970;50.996;3.706;2023-05-15T11:24:54;47171.91;;;-146.65;85.74
57094;BME280;42970;50.996;3.706;2023-05-15T11:27:18;47181.91;;;-146.65;85.61
57094;BME280;42970;50.996;3.706;2023-05-15T11:30:32;47177.91;;;-146.65;85.17
57094;BME280;42970;50.996;3.706;2023-05-15T11:32:30;47177.91;;;-146.65;85.18
57094;BME280;42970;50.996;3.706;2023-05-15T11:34:58;47181.91;;;-146.65;85.60
57094;BME280;42970;50.996;3.706;2023-05-15T11:37:23;47177.91;;;-146.65;85.65
57094;BME280;42970;50.996;3.706;2023-05-15T11:39:51;47177.91;;;-146.65;85.20
57094;BME280;42970;50.996;3.706;2023-05-15T11:42:16;47173.91;;;-146.65;85.08
57094;BME280;42970;50.996;3.706;2023-05-15T11:44:42;47175.91;;;-146.65;84.90
57094;BME280;42970;50.996;3.706;2023-05-15T11:47:10;47177.91;;;-146.65;84.91
57094;BME280;42970;50.996;3.706;2023-05-15T11:49:36;47173.91;;;-146.65;84.62
57094;BME280;42970;50.996;3.706;2023-05-15T11:52:02;47173.91;;;-146.65;84.95
57094;BME280;42970;50.996;3.706;2023-05-15T11:54:27;47179.91;;;-146.65;84.27
57094;BME280;42970;50.996;3.706;2023-05-15T11:56:53;47175.91;;;-146.65;84.40
57094;BME280;42970;50.996;3.706;2023-05-15T11:59:21;47173.91;;;-146.65;83.52
57094;BME280;42970;50.996;3.706;2023-05-15T12:01:50;47173.91;;;-146.65;83.46
57094;BME280;42970;50.996;3.706;2023-05-15T12:04:16;47177.91;;;-146.65;83.08
57094;BME280;42970;50.996;3.706;2023-05-15T12:06:42;47175.91;;;-146.65;82.92
57094;BME280;42970;50.996;3.706;2023-05-15T12:09:17;47175.91;;;-146.65;83.20
57094;BME280;42970;50.996;3.706;2023-05-15T12:11:50;47173.91;;;-146.65;82.82
57094;BME280;42970;50.996;3.706;2023-05-15T12:14:15;47175.91;;;-146.65;82.72
57094;BME280;42970;50.996;3.706;2023-05-15T12:16:41;47177.91;;;-146.65;83.22
57094;BME280;42970;50.996;3.706;2023-05-15T12:19:06;47175.91;;;-146.65;82.82
57094;BME280;42970;50.996;3.706;2023-05-15T12:21:31;47175.91;;;-146.65;82.46
57094;BME280;42970;50.996;3.706;2023-05-15T12:23:57;47177.91;;;-146.65;82.24
57094;BME280;42970;50.996;3.706;2023-05-15T12:26:22;47173.91;;;-146.65;81.54
57094;BME280;42970;50.996;3.706;2023-05-15T12:28:49;47175.91;;;-146.65;81.99
57094;BME280;42970;50.996;3.706;2023-05-15T12:31:14;47173.91;;;-146.65;82.43
57094;BME280;42970;50.996;3.706;2023-05-15T12:33:41;47173.91;;;-146.65;82.67
57094;BME280;42970;50.996;3.706;2023-05-15T12:36:07;47177.91;;;-146.65;82.37
57094;BME280;42970;50.996;3.706;2023-05-15T12:38:33;47175.91;;;-146.65;82.78
57094;BME280;42970;50.996;3.706;2023-05-15T12:41:00;47173.91;;;-146.65;82.65
57094;BME280;42970;50.996;3.706;2023-05-15T12:43:25;47177.91;;;-146.65;82.37
57094;BME280;42970;50.996;3.706;2023-05-15T12:45:51;47171.91;;;-146.65;83.25
57094;BME280;42970;50.996;3.706;2023-05-15T12:48:17;47175.91;;;-146.65;83.28
57094;BME280;42970;50.996;3.706;2023-05-15T12:50:43;47181.91;;;-146.65;83.25
57094;BME280;42970;50.996;3.706;2023-05-15T12:53:08;47175.91;;;-146.65;83.70
57094;BME280;42970;50.996;3.706;2023-05-15T12:55:36;47173.91;;;-146.65;83.99
57094;BME280;42970;50.996;3.706;2023-05-15T12:58:07;47175.91;;;-146.65;82.72
57094;BME280;42970;50.996;3.706;2023-05-15T13:00:34;47173.91;;;-146.65;82.37
57094;BME280;42970;50.996;3.706;2023-05-15T13:03:00;47171.91;;;-146.65;83.18